This is the latest recevied weather packets stored in our database for station/object eb1ayw-13. If no packets are shown the sender has not sent any weather packets the latest 10 day(s).
| Time | Temp. | Humidity | Pressure | Rain* | Wind** | Luminosity | Snow |
|---|---|---|---|---|---|---|---|
| 1777783067 | 40.56° C | 18% | 1002.5 hPa | - | - | - | - |
| 1777782467 | 44.44° C | 16% | 1001.7 hPa | - | - | - | - |
| 1777781867 | 38.33° C | 21% | 1003.2 hPa | - | - | - | - |
| 1777781267 | 41.11° C | 18% | 1002.5 hPa | - | - | - | - |
| 1777780667 | 45° C | 16% | 1001.6 hPa | - | - | - | - |
| 1777780067 | 38.89° C | 20% | 1003 hPa | - | - | - | - |
| 1777779467 | 43.89° C | 17% | 1001.9 hPa | - | - | - | - |
| 1777778867 | 42.78° C | 17% | 1002.4 hPa | - | - | - | - |
| 1777778267 | 42.22° C | 17% | 1002.4 hPa | - | - | - | - |
| 1777777667 | 43.89° C | 16% | 1002 hPa | - | - | - | - |
| 1777777068 | 43.89° C | 16% | 1002.1 hPa | - | - | - | - |
| 1777776467 | 45° C | 15% | 1001.8 hPa | - | - | - | - |
| 1777775867 | 44.44° C | 16% | 1002.1 hPa | - | - | - | - |
| 1777775267 | 41.11° C | 18% | 1003 hPa | - | - | - | - |
| 1777774667 | 43.89° C | 17% | 1002.4 hPa | - | - | - | - |
| 1777774067 | 43.89° C | 17% | 1002.4 hPa | - | - | - | - |
| 1777773467 | 43.33° C | 17% | 1002.6 hPa | - | - | - | - |
| 1777771258 | 44.44° C | 16% | 1002.6 hPa | - | - | - | - |
| 1777770058 | 45.56° C | 15% | 1002.4 hPa | - | - | - | - |
| 1777768258 | 37.22° C | 21% | 1004.8 hPa | - | - | - | - |
| 1777767658 | 41.11° C | 17% | 1003.8 hPa | - | - | - | - |
| 1777767058 | 41.67° C | 17% | 1003.7 hPa | - | - | - | - |
| 1777765258 | 45.56° C | 15% | 1002.9 hPa | - | - | - | - |
| 1777764658 | 42.22° C | 17% | 1003.6 hPa | - | - | - | - |
| 1777764058 | 45.56° C | 14% | 1002.8 hPa | - | - | - | - |
* Rain since midnight (hover to see other rain measurements)
** Current wind speed in m/s (hover to see current wind gust speed)